sensor_id;sensor_type;location;lat;lon;timestamp;P1;durP1;ratioP1;P2;durP2;ratioP2
37097;SDS011;63608;49.572;12.348;2023-03-19T00:00:05;16.50;;;13.10;;
37097;SDS011;63608;49.572;12.348;2023-03-19T00:02:08;15.53;;;12.17;;
37097;SDS011;63608;49.572;12.348;2023-03-19T00:04:10;16.57;;;12.73;;
37097;SDS011;63608;49.572;12.348;2023-03-19T00:06:12;20.33;;;13.60;;
37097;SDS011;63608;49.572;12.348;2023-03-19T00:08:14;15.00;;;12.60;;
37097;SDS011;63608;49.572;12.348;2023-03-19T00:10:16;15.40;;;12.30;;
37097;SDS011;63608;49.572;12.348;2023-03-19T00:12:18;16.27;;;13.13;;
37097;SDS011;63608;49.572;12.348;2023-03-19T00:14:21;15.90;;;12.30;;
37097;SDS011;63608;49.572;12.348;2023-03-19T00:16:23;17.43;;;12.57;;
37097;SDS011;63608;49.572;12.348;2023-03-19T00:18:25;16.13;;;12.03;;
37097;SDS011;63608;49.572;12.348;2023-03-19T00:20:27;17.13;;;12.10;;
37097;SDS011;63608;49.572;12.348;2023-03-19T00:22:29;17.20;;;12.90;;
37097;SDS011;63608;49.572;12.348;2023-03-19T00:24:31;16.77;;;12.40;;
37097;SDS011;63608;49.572;12.348;2023-03-19T00:26:33;16.17;;;12.40;;
37097;SDS011;63608;49.572;12.348;2023-03-19T00:28:36;15.53;;;13.10;;
37097;SDS011;63608;49.572;12.348;2023-03-19T00:30:39;19.40;;;11.60;;
37097;SDS011;63608;49.572;12.348;2023-03-19T00:32:41;14.83;;;11.60;;
37097;SDS011;63608;49.572;12.348;2023-03-19T00:34:43;16.87;;;12.80;;
37097;SDS011;63608;49.572;12.348;2023-03-19T00:36:45;17.67;;;12.37;;
37097;SDS011;63608;49.572;12.348;2023-03-19T00:38:47;16.47;;;12.50;;
37097;SDS011;63608;49.572;12.348;2023-03-19T00:40:49;15.10;;;11.73;;
37097;SDS011;63608;49.572;12.348;2023-03-19T00:42:51;15.43;;;11.60;;
37097;SDS011;63608;49.572;12.348;2023-03-19T00:44:52;15.83;;;11.87;;
37097;SDS011;63608;49.572;12.348;2023-03-19T00:46:56;16.93;;;12.00;;
37097;SDS011;63608;49.572;12.348;2023-03-19T00:48:58;15.70;;;11.50;;
37097;SDS011;63608;49.572;12.348;2023-03-19T00:51:01;14.17;;;11.53;;
37097;SDS011;63608;49.572;12.348;2023-03-19T00:53:03;18.90;;;12.77;;
37097;SDS011;63608;49.572;12.348;2023-03-19T00:55:05;15.93;;;12.20;;
37097;SDS011;63608;49.572;12.348;2023-03-19T00:57:08;18.40;;;11.70;;
37097;SDS011;63608;49.572;12.348;2023-03-19T00:59:10;16.00;;;11.77;;
37097;SDS011;63608;49.572;12.348;2023-03-19T01:01:12;14.97;;;11.47;;
37097;SDS011;63608;49.572;12.348;2023-03-19T01:03:17;15.03;;;11.43;;
37097;SDS011;63608;49.572;12.348;2023-03-19T01:05:19;14.20;;;11.70;;
37097;SDS011;63608;49.572;12.348;2023-03-19T01:07:21;15.20;;;11.40;;
37097;SDS011;63608;49.572;12.348;2023-03-19T01:09:23;16.07;;;12.17;;
37097;SDS011;63608;49.572;12.348;2023-03-19T01:11:25;16.70;;;12.33;;
37097;SDS011;63608;49.572;12.348;2023-03-19T01:13:27;13.33;;;11.10;;
37097;SDS011;63608;49.572;12.348;2023-03-19T01:15:28;15.10;;;11.83;;
37097;SDS011;63608;49.572;12.348;2023-03-19T01:17:31;15.63;;;11.80;;
37097;SDS011;63608;49.572;12.348;2023-03-19T01:19:34;15.23;;;11.40;;
37097;SDS011;63608;49.572;12.348;2023-03-19T01:21:36;13.00;;;11.10;;
37097;SDS011;63608;49.572;12.348;2023-03-19T01:23:38;13.40;;;10.90;;
37097;SDS011;63608;49.572;12.348;2023-03-19T01:25:40;14.63;;;11.40;;
37097;SDS011;63608;49.572;12.348;2023-03-19T01:27:41;15.70;;;11.17;;
37097;SDS011;63608;49.572;12.348;2023-03-19T01:29:43;12.63;;;11.17;;
37097;SDS011;63608;49.572;12.348;2023-03-19T01:31:45;13.40;;;11.47;;
37097;SDS011;63608;49.572;12.348;2023-03-19T01:33:47;15.57;;;11.10;;
37097;SDS011;63608;49.572;12.348;2023-03-19T01:35:51;15.10;;;12.13;;
37097;SDS011;63608;49.572;12.348;2023-03-19T01:37:53;16.67;;;11.50;;
37097;SDS011;63608;49.572;12.348;2023-03-19T01:39:54;15.30;;;11.30;;
37097;SDS011;63608;49.572;12.348;2023-03-19T01:41:59;13.20;;;11.30;;
37097;SDS011;63608;49.572;12.348;2023-03-19T01:44:02;15.23;;;11.30;;
37097;SDS011;63608;49.572;12.348;2023-03-19T01:46:05;14.87;;;11.37;;
37097;SDS011;63608;49.572;12.348;2023-03-19T01:48:09;20.23;;;11.93;;
37097;SDS011;63608;49.572;12.348;2023-03-19T01:50:23;13.63;;;11.57;;
37097;SDS011;63608;49.572;12.348;2023-03-19T01:52:28;15.10;;;11.53;;
37097;SDS011;63608;49.572;12.348;2023-03-19T01:54:32;14.23;;;10.63;;
37097;SDS011;63608;49.572;12.348;2023-03-19T01:56:35;13.67;;;10.90;;
37097;SDS011;63608;49.572;12.348;2023-03-19T01:58:38;14.33;;;11.90;;
37097;SDS011;63608;49.572;12.348;2023-03-19T02:00:42;14.60;;;11.70;;
37097;SDS011;63608;49.572;12.348;2023-03-19T02:02:46;14.83;;;11.33;;
37097;SDS011;63608;49.572;12.348;2023-03-19T02:04:50;14.30;;;11.70;;
37097;SDS011;63608;49.572;12.348;2023-03-19T02:06:54;16.00;;;11.67;;
37097;SDS011;63608;49.572;12.348;2023-03-19T02:08:57;14.30;;;11.60;;
37097;SDS011;63608;49.572;12.348;2023-03-19T02:11:00;14.20;;;11.37;;
37097;SDS011;63608;49.572;12.348;2023-03-19T02:13:02;13.83;;;11.10;;
37097;SDS011;63608;49.572;12.348;2023-03-19T02:15:04;15.63;;;11.70;;
37097;SDS011;63608;49.572;12.348;2023-03-19T02:17:07;12.70;;;11.20;;
37097;SDS011;63608;49.572;12.348;2023-03-19T02:19:09;11.83;;;10.60;;
37097;SDS011;63608;49.572;12.348;2023-03-19T02:21:15;14.07;;;11.70;;
37097;SDS011;63608;49.572;12.348;2023-03-19T02:23:20;12.13;;;10.80;;
37097;SDS011;63608;49.572;12.348;2023-03-19T02:25:29;16.10;;;11.80;;
37097;SDS011;63608;49.572;12.348;2023-03-19T02:27:37;14.87;;;11.27;;
37097;SDS011;63608;49.572;12.348;2023-03-19T02:29:39;13.43;;;11.00;;
37097;SDS011;63608;49.572;12.348;2023-03-19T02:31:40;13.93;;;11.27;;
37097;SDS011;63608;49.572;12.348;2023-03-19T02:33:42;13.03;;;10.97;;
37097;SDS011;63608;49.572;12.348;2023-03-19T02:35:45;15.67;;;11.60;;
37097;SDS011;63608;49.572;12.348;2023-03-19T02:37:48;12.77;;;10.30;;
37097;SDS011;63608;49.572;12.348;2023-03-19T02:39:52;13.53;;;10.67;;
37097;SDS011;63608;49.572;12.348;2023-03-19T02:41:56;13.53;;;11.07;;
37097;SDS011;63608;49.572;12.348;2023-03-19T02:44:01;14.20;;;11.13;;
37097;SDS011;63608;49.572;12.348;2023-03-19T02:46:05;12.80;;;10.60;;
37097;SDS011;63608;49.572;12.348;2023-03-19T02:48:08;14.50;;;11.10;;
37097;SDS011;63608;49.572;12.348;2023-03-19T02:50:10;13.43;;;10.87;;
37097;SDS011;63608;49.572;12.348;2023-03-19T02:52:12;14.40;;;12.07;;
37097;SDS011;63608;49.572;12.348;2023-03-19T02:54:15;16.80;;;12.17;;
37097;SDS011;63608;49.572;12.348;2023-03-19T02:56:16;15.17;;;11.63;;
37097;SDS011;63608;49.572;12.348;2023-03-19T02:58:18;14.97;;;11.00;;
37097;SDS011;63608;49.572;12.348;2023-03-19T03:00:22;15.93;;;11.87;;
37097;SDS011;63608;49.572;12.348;2023-03-19T03:02:24;12.83;;;10.70;;
37097;SDS011;63608;49.572;12.348;2023-03-19T03:04:26;12.93;;;10.40;;
37097;SDS011;63608;49.572;12.348;2023-03-19T03:06:28;16.33;;;11.50;;
37097;SDS011;63608;49.572;12.348;2023-03-19T03:08:30;14.50;;;11.30;;
37097;SDS011;63608;49.572;12.348;2023-03-19T03:10:32;16.10;;;11.80;;
37097;SDS011;63608;49.572;12.348;2023-03-19T03:12:34;13.67;;;10.97;;
37097;SDS011;63608;49.572;12.348;2023-03-19T03:14:37;11.97;;;10.17;;
37097;SDS011;63608;49.572;12.348;2023-03-19T03:16:41;13.67;;;10.73;;
37097;SDS011;63608;49.572;12.348;2023-03-19T03:18:43;12.53;;;10.43;;
37097;SDS011;63608;49.572;12.348;2023-03-19T03:20:45;17.43;;;11.00;;
37097;SDS011;63608;49.572;12.348;2023-03-19T03:22:47;11.87;;;10.13;;
37097;SDS011;63608;49.572;12.348;2023-03-19T03:24:49;12.03;;;9.90;;
37097;SDS011;63608;49.572;12.348;2023-03-19T03:26:51;13.00;;;10.93;;
37097;SDS011;63608;49.572;12.348;2023-03-19T03:28:53;12.50;;;10.77;;
37097;SDS011;63608;49.572;12.348;2023-03-19T03:30:57;15.77;;;11.60;;
37097;SDS011;63608;49.572;12.348;2023-03-19T03:33:00;14.23;;;11.60;;
37097;SDS011;63608;49.572;12.348;2023-03-19T03:35:03;17.27;;;11.33;;
37097;SDS011;63608;49.572;12.348;2023-03-19T03:37:05;15.07;;;11.53;;
37097;SDS011;63608;49.572;12.348;2023-03-19T03:39:08;15.50;;;11.70;;
37097;SDS011;63608;49.572;12.348;2023-03-19T03:41:10;18.87;;;11.57;;
37097;SDS011;63608;49.572;12.348;2023-03-19T03:43:12;15.93;;;11.97;;
37097;SDS011;63608;49.572;12.348;2023-03-19T03:45:15;17.23;;;12.43;;
37097;SDS011;63608;49.572;12.348;2023-03-19T03:47:17;12.97;;;11.33;;
37097;SDS011;63608;49.572;12.348;2023-03-19T03:49:20;13.60;;;11.60;;
37097;SDS011;63608;49.572;12.348;2023-03-19T03:51:22;14.33;;;10.83;;
37097;SDS011;63608;49.572;12.348;2023-03-19T03:53:24;18.77;;;11.70;;
37097;SDS011;63608;49.572;12.348;2023-03-19T03:55:26;15.77;;;10.77;;
37097;SDS011;63608;49.572;12.348;2023-03-19T03:57:28;14.47;;;11.30;;
37097;SDS011;63608;49.572;12.348;2023-03-19T03:59:30;15.40;;;11.80;;
37097;SDS011;63608;49.572;12.348;2023-03-19T04:01:32;16.23;;;11.57;;
37097;SDS011;63608;49.572;12.348;2023-03-19T04:03:34;14.87;;;11.63;;
37097;SDS011;63608;49.572;12.348;2023-03-19T04:05:37;13.47;;;11.50;;
37097;SDS011;63608;49.572;12.348;2023-03-19T04:07:39;16.73;;;11.67;;
37097;SDS011;63608;49.572;12.348;2023-03-19T04:09:41;12.67;;;10.80;;
37097;SDS011;63608;49.572;12.348;2023-03-19T04:11:45;16.00;;;12.47;;
37097;SDS011;63608;49.572;12.348;2023-03-19T04:13:48;14.37;;;12.47;;
37097;SDS011;63608;49.572;12.348;2023-03-19T04:15:50;16.57;;;11.90;;
37097;SDS011;63608;49.572;12.348;2023-03-19T04:17:53;14.70;;;12.30;;
37097;SDS011;63608;49.572;12.348;2023-03-19T04:19:55;15.57;;;11.30;;
37097;SDS011;63608;49.572;12.348;2023-03-19T04:21:59;15.10;;;12.17;;
37097;SDS011;63608;49.572;12.348;2023-03-19T04:24:02;14.67;;;11.70;;
37097;SDS011;63608;49.572;12.348;2023-03-19T04:26:05;14.17;;;10.30;;
37097;SDS011;63608;49.572;12.348;2023-03-19T04:28:07;14.07;;;11.13;;
37097;SDS011;63608;49.572;12.348;2023-03-19T04:30:09;13.53;;;11.50;;
37097;SDS011;63608;49.572;12.348;2023-03-19T04:32:12;14.33;;;11.57;;
37097;SDS011;63608;49.572;12.348;2023-03-19T04:34:14;16.47;;;11.87;;
37097;SDS011;63608;49.572;12.348;2023-03-19T04:36:16;13.07;;;10.50;;
37097;SDS011;63608;49.572;12.348;2023-03-19T04:38:20;14.10;;;10.47;;
37097;SDS011;63608;49.572;12.348;2023-03-19T04:40:23;13.90;;;10.47;;
37097;SDS011;63608;49.572;12.348;2023-03-19T04:42:25;12.90;;;10.60;;
37097;SDS011;63608;49.572;12.348;2023-03-19T04:44:27;12.33;;;10.20;;
37097;SDS011;63608;49.572;12.348;2023-03-19T04:46:30;14.47;;;11.80;;
37097;SDS011;63608;49.572;12.348;2023-03-19T04:48:32;13.77;;;10.53;;
37097;SDS011;63608;49.572;12.348;2023-03-19T04:50:35;12.40;;;10.43;;
37097;SDS011;63608;49.572;12.348;2023-03-19T04:52:37;13.03;;;11.07;;
37097;SDS011;63608;49.572;12.348;2023-03-19T04:54:40;13.00;;;11.20;;
37097;SDS011;63608;49.572;12.348;2023-03-19T04:56:42;12.03;;;10.57;;
37097;SDS011;63608;49.572;12.348;2023-03-19T04:58:44;16.80;;;11.17;;
37097;SDS011;63608;49.572;12.348;2023-03-19T05:00:46;12.77;;;11.33;;
37097;SDS011;63608;49.572;12.348;2023-03-19T05:02:48;16.83;;;11.23;;
37097;SDS011;63608;49.572;12.348;2023-03-19T05:04:50;14.03;;;10.90;;
37097;SDS011;63608;49.572;12.348;2023-03-19T05:06:52;13.03;;;10.77;;
37097;SDS011;63608;49.572;12.348;2023-03-19T05:08:54;15.50;;;11.80;;
37097;SDS011;63608;49.572;12.348;2023-03-19T05:10:57;14.83;;;11.67;;
37097;SDS011;63608;49.572;12.348;2023-03-19T05:12:59;15.67;;;11.63;;
37097;SDS011;63608;49.572;12.348;2023-03-19T05:15:02;14.83;;;11.37;;
37097;SDS011;63608;49.572;12.348;2023-03-19T05:17:04;14.03;;;11.37;;
37097;SDS011;63608;49.572;12.348;2023-03-19T05:19:06;13.53;;;11.30;;
37097;SDS011;63608;49.572;12.348;2023-03-19T05:21:09;14.53;;;11.40;;
37097;SDS011;63608;49.572;12.348;2023-03-19T05:23:11;14.47;;;11.57;;
37097;SDS011;63608;49.572;12.348;2023-03-19T05:25:13;17.53;;;12.10;;
37097;SDS011;63608;49.572;12.348;2023-03-19T05:27:17;15.90;;;11.03;;
37097;SDS011;63608;49.572;12.348;2023-03-19T05:29:19;14.47;;;10.70;;
37097;SDS011;63608;49.572;12.348;2023-03-19T05:31:21;15.03;;;11.70;;
37097;SDS011;63608;49.572;12.348;2023-03-19T05:33:23;14.67;;;11.97;;
37097;SDS011;63608;49.572;12.348;2023-03-19T05:35:25;17.67;;;12.27;;
37097;SDS011;63608;49.572;12.348;2023-03-19T05:37:28;17.17;;;12.27;;
37097;SDS011;63608;49.572;12.348;2023-03-19T05:39:31;13.70;;;11.53;;
37097;SDS011;63608;49.572;12.348;2023-03-19T05:41:33;16.30;;;12.80;;
37097;SDS011;63608;49.572;12.348;2023-03-19T05:43:36;14.60;;;11.97;;
37097;SDS011;63608;49.572;12.348;2023-03-19T05:45:38;15.77;;;11.97;;
37097;SDS011;63608;49.572;12.348;2023-03-19T05:47:41;13.77;;;11.37;;
37097;SDS011;63608;49.572;12.348;2023-03-19T05:49:44;15.40;;;12.10;;
37097;SDS011;63608;49.572;12.348;2023-03-19T05:51:45;15.93;;;12.60;;
37097;SDS011;63608;49.572;12.348;2023-03-19T05:53:47;14.10;;;11.70;;
37097;SDS011;63608;49.572;12.348;2023-03-19T05:55:49;16.33;;;11.70;;
37097;SDS011;63608;49.572;12.348;2023-03-19T05:57:51;13.40;;;11.53;;
37097;SDS011;63608;49.572;12.348;2023-03-19T05:59:55;14.47;;;11.80;;
37097;SDS011;63608;49.572;12.348;2023-03-19T06:01:57;14.80;;;12.00;;
37097;SDS011;63608;49.572;12.348;2023-03-19T06:03:59;15.23;;;11.80;;
37097;SDS011;63608;49.572;12.348;2023-03-19T06:06:01;16.50;;;12.43;;
37097;SDS011;63608;49.572;12.348;2023-03-19T06:08:03;14.10;;;12.00;;
37097;SDS011;63608;49.572;12.348;2023-03-19T06:10:06;15.10;;;12.30;;
37097;SDS011;63608;49.572;12.348;2023-03-19T06:12:09;14.10;;;11.70;;
37097;SDS011;63608;49.572;12.348;2023-03-19T06:14:11;16.40;;;12.40;;
37097;SDS011;63608;49.572;12.348;2023-03-19T06:16:14;13.23;;;11.77;;
37097;SDS011;63608;49.572;12.348;2023-03-19T06:18:17;14.90;;;12.37;;
37097;SDS011;63608;49.572;12.348;2023-03-19T06:20:19;15.87;;;12.33;;
37097;SDS011;63608;49.572;12.348;2023-03-19T06:22:21;15.27;;;12.07;;
37097;SDS011;63608;49.572;12.348;2023-03-19T06:24:22;16.60;;;12.57;;
37097;SDS011;63608;49.572;12.348;2023-03-19T06:26:24;16.90;;;12.43;;
37097;SDS011;63608;49.572;12.348;2023-03-19T06:28:27;16.73;;;12.67;;
37097;SDS011;63608;49.572;12.348;2023-03-19T06:30:28;17.20;;;14.07;;
37097;SDS011;63608;49.572;12.348;2023-03-19T06:32:32;16.37;;;12.10;;
37097;SDS011;63608;49.572;12.348;2023-03-19T06:34:34;16.70;;;13.20;;
37097;SDS011;63608;49.572;12.348;2023-03-19T06:36:36;15.23;;;12.27;;
37097;SDS011;63608;49.572;12.348;2023-03-19T06:38:37;15.70;;;12.80;;
37097;SDS011;63608;49.572;12.348;2023-03-19T06:40:39;16.20;;;13.00;;
37097;SDS011;63608;49.572;12.348;2023-03-19T06:42:43;18.13;;;12.77;;
37097;SDS011;63608;49.572;12.348;2023-03-19T06:44:45;18.03;;;13.57;;
37097;SDS011;63608;49.572;12.348;2023-03-19T06:46:47;16.10;;;13.10;;
37097;SDS011;63608;49.572;12.348;2023-03-19T06:48:51;14.93;;;12.63;;
37097;SDS011;63608;49.572;12.348;2023-03-19T06:50:53;15.67;;;12.70;;
37097;SDS011;63608;49.572;12.348;2023-03-19T06:52:55;15.90;;;12.53;;
37097;SDS011;63608;49.572;12.348;2023-03-19T06:54:57;16.00;;;12.60;;
37097;SDS011;63608;49.572;12.348;2023-03-19T06:56:59;14.97;;;12.70;;
37097;SDS011;63608;49.572;12.348;2023-03-19T06:59:01;17.00;;;13.50;;
37097;SDS011;63608;49.572;12.348;2023-03-19T07:01:04;19.60;;;14.03;;
37097;SDS011;63608;49.572;12.348;2023-03-19T07:03:06;27.93;;;20.30;;
37097;SDS011;63608;49.572;12.348;2023-03-19T07:05:09;18.80;;;15.67;;
37097;SDS011;63608;49.572;12.348;2023-03-19T07:07:11;16.83;;;13.90;;
37097;SDS011;63608;49.572;12.348;2023-03-19T07:09:13;16.70;;;13.50;;
37097;SDS011;63608;49.572;12.348;2023-03-19T07:11:15;18.77;;;14.20;;
37097;SDS011;63608;49.572;12.348;2023-03-19T07:13:17;18.03;;;13.20;;
37097;SDS011;63608;49.572;12.348;2023-03-19T07:15:18;18.90;;;13.03;;
37097;SDS011;63608;49.572;12.348;2023-03-19T07:17:21;15.83;;;12.27;;
37097;SDS011;63608;49.572;12.348;2023-03-19T07:19:23;17.43;;;13.00;;
37097;SDS011;63608;49.572;12.348;2023-03-19T07:21:27;15.27;;;12.60;;
37097;SDS011;63608;49.572;12.348;2023-03-19T07:23:29;13.80;;;11.97;;
37097;SDS011;63608;49.572;12.348;2023-03-19T07:25:31;16.60;;;12.37;;
37097;SDS011;63608;49.572;12.348;2023-03-19T07:27:33;14.40;;;11.67;;
37097;SDS011;63608;49.572;12.348;2023-03-19T07:29:34;15.07;;;12.03;;
37097;SDS011;63608;49.572;12.348;2023-03-19T07:31:37;15.83;;;12.43;;
37097;SDS011;63608;49.572;12.348;2023-03-19T07:33:39;16.03;;;12.60;;
37097;SDS011;63608;49.572;12.348;2023-03-19T07:35:41;16.30;;;13.10;;
37097;SDS011;63608;49.572;12.348;2023-03-19T07:37:44;16.30;;;11.97;;
37097;SDS011;63608;49.572;12.348;2023-03-19T07:39:46;15.70;;;13.07;;
37097;SDS011;63608;49.572;12.348;2023-03-19T07:41:48;17.13;;;13.23;;
37097;SDS011;63608;49.572;12.348;2023-03-19T07:43:50;16.37;;;12.80;;
37097;SDS011;63608;49.572;12.348;2023-03-19T07:45:52;16.13;;;12.80;;
37097;SDS011;63608;49.572;12.348;2023-03-19T07:47:54;16.37;;;13.07;;
37097;SDS011;63608;49.572;12.348;2023-03-19T07:49:56;20.00;;;12.33;;
37097;SDS011;63608;49.572;12.348;2023-03-19T07:51:58;20.00;;;14.93;;
37097;SDS011;63608;49.572;12.348;2023-03-19T07:54:01;18.83;;;14.60;;
37097;SDS011;63608;49.572;12.348;2023-03-19T07:56:03;17.97;;;14.10;;
37097;SDS011;63608;49.572;12.348;2023-03-19T07:58:06;33.70;;;22.07;;
37097;SDS011;63608;49.572;12.348;2023-03-19T08:00:08;25.90;;;20.30;;
37097;SDS011;63608;49.572;12.348;2023-03-19T08:02:12;23.53;;;18.13;;
37097;SDS011;63608;49.572;12.348;2023-03-19T08:04:14;22.40;;;15.50;;
37097;SDS011;63608;49.572;12.348;2023-03-19T08:06:16;25.90;;;16.67;;
37097;SDS011;63608;49.572;12.348;2023-03-19T08:08:18;19.73;;;15.47;;
37097;SDS011;63608;49.572;12.348;2023-03-19T08:10:21;21.13;;;15.77;;
37097;SDS011;63608;49.572;12.348;2023-03-19T08:12:23;19.53;;;15.50;;
37097;SDS011;63608;49.572;12.348;2023-03-19T08:14:25;20.03;;;16.40;;
37097;SDS011;63608;49.572;12.348;2023-03-19T08:16:27;20.90;;;16.00;;
37097;SDS011;63608;49.572;12.348;2023-03-19T08:18:29;29.33;;;23.57;;
37097;SDS011;63608;49.572;12.348;2023-03-19T08:20:31;21.50;;;17.60;;
37097;SDS011;63608;49.572;12.348;2023-03-19T08:22:33;21.40;;;16.10;;
37097;SDS011;63608;49.572;12.348;2023-03-19T08:24:36;19.97;;;15.33;;
37097;SDS011;63608;49.572;12.348;2023-03-19T08:26:39;20.43;;;15.40;;
37097;SDS011;63608;49.572;12.348;2023-03-19T08:28:41;50.70;;;37.80;;
37097;SDS011;63608;49.572;12.348;2023-03-19T08:30:43;48.37;;;33.43;;
37097;SDS011;63608;49.572;12.348;2023-03-19T08:32:45;24.40;;;16.53;;
37097;SDS011;63608;49.572;12.348;2023-03-19T08:34:48;21.83;;;17.17;;
37097;SDS011;63608;49.572;12.348;2023-03-19T08:36:50;25.23;;;19.40;;
37097;SDS011;63608;49.572;12.348;2023-03-19T08:38:52;21.37;;;17.03;;
37097;SDS011;63608;49.572;12.348;2023-03-19T08:40:54;24.77;;;19.10;;
37097;SDS011;63608;49.572;12.348;2023-03-19T08:43:02;24.90;;;18.00;;
37097;SDS011;63608;49.572;12.348;2023-03-19T08:45:04;31.10;;;18.83;;
37097;SDS011;63608;49.572;12.348;2023-03-19T08:47:07;25.10;;;19.40;;
37097;SDS011;63608;49.572;12.348;2023-03-19T08:49:10;29.30;;;18.30;;
37097;SDS011;63608;49.572;12.348;2023-03-19T08:51:12;23.50;;;17.63;;
37097;SDS011;63608;49.572;12.348;2023-03-19T08:53:14;23.23;;;18.17;;
37097;SDS011;63608;49.572;12.348;2023-03-19T08:55:16;26.47;;;18.90;;
37097;SDS011;63608;49.572;12.348;2023-03-19T08:57:18;28.67;;;23.00;;
37097;SDS011;63608;49.572;12.348;2023-03-19T08:59:21;26.00;;;20.93;;
37097;SDS011;63608;49.572;12.348;2023-03-19T09:01:23;21.10;;;17.30;;
37097;SDS011;63608;49.572;12.348;2023-03-19T09:03:25;20.30;;;17.03;;
37097;SDS011;63608;49.572;12.348;2023-03-19T09:05:27;21.63;;;17.67;;
37097;SDS011;63608;49.572;12.348;2023-03-19T09:07:29;22.90;;;18.00;;
37097;SDS011;63608;49.572;12.348;2023-03-19T09:09:31;25.20;;;18.77;;
37097;SDS011;63608;49.572;12.348;2023-03-19T09:11:32;45.17;;;34.83;;
37097;SDS011;63608;49.572;12.348;2023-03-19T09:13:34;25.23;;;20.10;;
37097;SDS011;63608;49.572;12.348;2023-03-19T09:15:38;20.90;;;16.87;;
37097;SDS011;63608;49.572;12.348;2023-03-19T09:17:40;24.93;;;17.20;;
37097;SDS011;63608;49.572;12.348;2023-03-19T09:19:42;23.70;;;17.97;;
37097;SDS011;63608;49.572;12.348;2023-03-19T09:21:44;20.07;;;16.10;;
37097;SDS011;63608;49.572;12.348;2023-03-19T09:23:46;22.33;;;16.80;;
37097;SDS011;63608;49.572;12.348;2023-03-19T09:25:48;22.17;;;16.00;;
37097;SDS011;63608;49.572;12.348;2023-03-19T09:27:50;20.27;;;16.07;;
37097;SDS011;63608;49.572;12.348;2023-03-19T09:29:52;25.00;;;17.03;;
37097;SDS011;63608;49.572;12.348;2023-03-19T09:31:55;18.50;;;15.30;;
37097;SDS011;63608;49.572;12.348;2023-03-19T09:33:57;21.77;;;15.60;;
37097;SDS011;63608;49.572;12.348;2023-03-19T09:35:59;24.40;;;17.90;;
37097;SDS011;63608;49.572;12.348;2023-03-19T09:38:01;16.80;;;14.60;;
37097;SDS011;63608;49.572;12.348;2023-03-19T09:40:03;23.50;;;15.37;;
37097;SDS011;63608;49.572;12.348;2023-03-19T09:42:10;16.30;;;13.90;;
37097;SDS011;63608;49.572;12.348;2023-03-19T09:44:21;21.13;;;14.67;;
37097;SDS011;63608;49.572;12.348;2023-03-19T09:46:31;19.07;;;15.47;;
37097;SDS011;63608;49.572;12.348;2023-03-19T09:48:39;20.43;;;14.47;;
37097;SDS011;63608;49.572;12.348;2023-03-19T09:50:46;18.23;;;15.67;;
37097;SDS011;63608;49.572;12.348;2023-03-19T09:52:50;18.57;;;14.83;;
37097;SDS011;63608;49.572;12.348;2023-03-19T09:54:57;17.33;;;13.50;;
37097;SDS011;63608;49.572;12.348;2023-03-19T09:57:01;17.10;;;12.83;;
37097;SDS011;63608;49.572;12.348;2023-03-19T09:59:03;16.97;;;12.80;;
37097;SDS011;63608;49.572;12.348;2023-03-19T10:01:05;19.60;;;12.90;;
37097;SDS011;63608;49.572;12.348;2023-03-19T10:03:11;15.30;;;12.80;;
37097;SDS011;63608;49.572;12.348;2023-03-19T10:05:28;16.20;;;12.17;;
37097;SDS011;63608;49.572;12.348;2023-03-19T10:07:42;14.10;;;12.10;;
37097;SDS011;63608;49.572;12.348;2023-03-19T10:12:27;12.20;;;10.77;;
37097;SDS011;63608;49.572;12.348;2023-03-19T10:17:11;12.53;;;10.83;;
37097;SDS011;63608;49.572;12.348;2023-03-19T10:19:17;16.33;;;10.60;;
37097;SDS011;63608;49.572;12.348;2023-03-19T10:21:24;13.87;;;11.17;;
37097;SDS011;63608;49.572;12.348;2023-03-19T10:23:30;13.40;;;10.43;;
37097;SDS011;63608;49.572;12.348;2023-03-19T10:25:34;12.93;;;10.73;;
37097;SDS011;63608;49.572;12.348;2023-03-19T10:27:38;15.70;;;11.33;;
37097;SDS011;63608;49.572;12.348;2023-03-19T10:29:41;12.90;;;10.77;;
37097;SDS011;63608;49.572;12.348;2023-03-19T10:31:44;13.87;;;10.70;;
37097;SDS011;63608;49.572;12.348;2023-03-19T10:33:51;12.33;;;10.80;;
37097;SDS011;63608;49.572;12.348;2023-03-19T10:35:59;12.50;;;10.53;;
37097;SDS011;63608;49.572;12.348;2023-03-19T10:38:10;14.70;;;10.97;;
37097;SDS011;63608;49.572;12.348;2023-03-19T10:40:19;14.23;;;11.07;;
37097;SDS011;63608;49.572;12.348;2023-03-19T10:42:27;13.57;;;12.00;;
37097;SDS011;63608;49.572;12.348;2023-03-19T10:44:36;14.40;;;12.50;;
37097;SDS011;63608;49.572;12.348;2023-03-19T10:46:41;19.10;;;12.70;;
37097;SDS011;63608;49.572;12.348;2023-03-19T10:48:44;27.00;;;17.27;;
37097;SDS011;63608;49.572;12.348;2023-03-19T10:50:47;66.40;;;39.47;;
37097;SDS011;63608;49.572;12.348;2023-03-19T10:52:50;13.50;;;11.80;;
37097;SDS011;63608;49.572;12.348;2023-03-19T10:54:55;13.27;;;11.20;;
37097;SDS011;63608;49.572;12.348;2023-03-19T10:57:01;12.80;;;10.60;;
37097;SDS011;63608;49.572;12.348;2023-03-19T10:59:04;11.27;;;10.10;;
37097;SDS011;63608;49.572;12.348;2023-03-19T11:01:08;11.57;;;10.03;;
37097;SDS011;63608;49.572;12.348;2023-03-19T11:03:25;11.23;;;9.67;;
37097;SDS011;63608;49.572;12.348;2023-03-19T11:05:30;13.50;;;8.80;;
37097;SDS011;63608;49.572;12.348;2023-03-19T11:07:33;11.00;;;9.90;;
37097;SDS011;63608;49.572;12.348;2023-03-19T11:09:37;12.50;;;8.77;;
37097;SDS011;63608;49.572;12.348;2023-03-19T11:11:43;9.73;;;8.57;;
37097;SDS011;63608;49.572;12.348;2023-03-19T11:13:46;10.47;;;9.30;;
37097;SDS011;63608;49.572;12.348;2023-03-19T11:15:47;11.00;;;8.50;;
37097;SDS011;63608;49.572;12.348;2023-03-19T11:18:06;8.33;;;7.50;;
37097;SDS011;63608;49.572;12.348;2023-03-19T11:20:17;10.50;;;7.93;;
37097;SDS011;63608;49.572;12.348;2023-03-19T11:22:23;11.97;;;7.90;;
37097;SDS011;63608;49.572;12.348;2023-03-19T11:24:26;9.53;;;6.87;;
37097;SDS011;63608;49.572;12.348;2023-03-19T11:26:28;7.87;;;7.17;;
37097;SDS011;63608;49.572;12.348;2023-03-19T11:28:31;8.77;;;6.97;;
37097;SDS011;63608;49.572;12.348;2023-03-19T11:30:38;8.13;;;6.60;;
37097;SDS011;63608;49.572;12.348;2023-03-19T11:35:25;7.20;;;6.60;;
37097;SDS011;63608;49.572;12.348;2023-03-19T11:37:30;10.17;;;7.20;;
37097;SDS011;63608;49.572;12.348;2023-03-19T11:39:36;8.13;;;6.80;;
37097;SDS011;63608;49.572;12.348;2023-03-19T11:44:13;8.13;;;7.30;;
37097;SDS011;63608;49.572;12.348;2023-03-19T11:46:20;9.57;;;7.00;;
37097;SDS011;63608;49.572;12.348;2023-03-19T11:48:30;8.23;;;6.90;;
37097;SDS011;63608;49.572;12.348;2023-03-19T11:50:42;7.33;;;6.63;;
37097;SDS011;63608;49.572;12.348;2023-03-19T11:52:52;7.53;;;6.73;;
37097;SDS011;63608;49.572;12.348;2023-03-19T11:55:10;9.47;;;7.57;;
37097;SDS011;63608;49.572;12.348;2023-03-19T11:57:21;7.57;;;6.87;;
37097;SDS011;63608;49.572;12.348;2023-03-19T11:59:39;7.43;;;6.50;;
37097;SDS011;63608;49.572;12.348;2023-03-19T12:04:30;7.90;;;6.97;;